Time;durP1;ratioP1;P1;durP2;ratioP2;P2;SDS_P1;SDS_P2;PMS_P1;PMS_P2;Temp;Humidity;BMP_temperature;BMP_pressure;BME280_temperature;BME280_humidity;BME280_pressure;Samples;Min_cycle;Max_cycle;Signal;HPM_P1;HPM_P2
2021/09/11 00:00:02;;;;;;;3.90;3.60;;;;;;;16.94;59.02;95125.22;5032909;28;20438;-84
2021/09/11 00:02:29;;;;;;;5.93;3.03;;;;;;;16.88;58.93;95132.03;5032729;28;20447;-83
2021/09/11 00:04:57;;;;;;;7.33;3.73;;;;;;;16.81;59.04;95132.84;5032941;28;20453;-84
2021/09/11 00:07:25;;;;;;;3.43;3.13;;;;;;;16.74;59.60;95140.59;5032956;28;20454;-84
2021/09/11 00:09:52;;;;;;;3.27;2.97;;;;;;;16.73;59.44;95139.75;5013999;28;20987;-84
2021/09/11 00:12:19;;;;;;;7.57;3.90;;;;;;;16.76;59.80;95137.78;5014155;28;20875;-83
2021/09/11 00:14:45;;;;;;;5.23;3.23;;;;;;;16.78;59.89;95135.81;5032639;28;20452;-84
2021/09/11 00:17:12;;;;;;;4.03;3.20;;;;;;;16.73;60.16;95145.06;5032909;28;20458;-84
2021/09/11 00:19:39;;;;;;;3.10;2.90;;;;;;;16.76;60.54;95137.78;5032738;28;20438;-84
2021/09/11 00:22:08;;;;;;;4.63;3.37;;;;;;;16.77;60.60;95134.13;5032723;28;20549;-83
2021/09/11 00:24:35;;;;;;;3.33;2.90;;;;;;;16.76;60.51;95132.47;5013989;28;20450;-83
2021/09/11 00:27:02;;;;;;;5.23;2.93;;;;;;;16.80;59.93;95141.78;5013889;28;20437;-84
2021/09/11 00:29:29;;;;;;;5.63;3.30;;;;;;;16.78;60.49;95139.28;5032286;28;20538;-83
2021/09/11 00:31:55;;;;;;;2.70;2.50;;;;;;;16.81;60.10;95140.78;5032314;28;20445;-83
2021/09/11 00:34:23;;;;;;;3.50;3.20;;;;;;;16.83;60.42;95138.81;5032319;28;20453;-83
2021/09/11 00:36:49;;;;;;;3.77;3.50;;;;;;;16.81;59.90;95135.50;5032327;28;20531;-84
2021/09/11 00:39:18;;;;;;;3.30;2.97;;;;;;;16.80;60.95;95134.66;5032174;28;20448;-83
2021/09/11 00:41:45;;;;;;;3.60;3.20;;;;;;;16.82;60.10;95150.41;5032245;28;20522;-84
2021/09/11 00:44:12;;;;;;;5.43;3.43;;;;;;;16.83;60.68;95144.09;5032025;28;20444;-84
2021/09/11 00:46:39;;;;;;;8.10;3.20;;;;;;;16.77;59.85;95150.88;5012600;28;20430;-83
2021/09/11 00:49:06;;;;;;;3.40;3.10;;;;;;;16.67;60.66;95148.34;5032173;28;21148;-83
2021/09/11 00:51:33;;;;;;;4.77;3.27;;;;;;;16.62;60.67;95137.38;5032222;28;20505;-83
2021/09/11 00:54:00;;;;;;;3.57;3.23;;;;;;;16.64;60.28;95146.00;5032119;28;21224;-83
2021/09/11 00:56:30;;;;;;;4.87;3.40;;;;;;;16.60;60.89;95139.38;5031950;28;20482;-83
2021/09/11 00:58:57;;;;;;;3.40;3.10;;;;;;;16.67;60.66;95140.41;5031970;28;20454;-83
2021/09/11 01:01:24;;;;;;;4.23;3.83;;;;;;;16.64;59.96;95137.22;5013453;28;20438;-83
2021/09/11 01:03:51;;;;;;;3.70;3.40;;;;;;;16.65;61.22;95145.00;5031894;28;20445;-84
2021/09/11 01:06:18;;;;;;;3.37;2.97;;;;;;;16.60;60.25;95139.38;5032019;28;20460;-83
2021/09/11 01:08:46;;;;;;;4.40;3.90;;;;;;;16.50;61.05;95143.97;5031885;28;20970;-83
2021/09/11 01:11:13;;;;;;;4.53;3.53;;;;;;;16.40;61.33;95144.09;5032299;28;20484;-83
2021/09/11 01:13:42;;;;;;;4.00;3.70;;;;;;;16.35;61.94;95134.97;5032051;28;20445;-83
2021/09/11 01:16:09;;;;;;;3.40;3.10;;;;;;;16.26;62.41;95135.94;5032055;28;20492;-83
2021/09/11 01:18:37;;;;;;;2.63;2.43;;;;;;;16.19;62.85;95134.88;5031681;28;20441;-83
2021/09/11 01:21:04;;;;;;;4.67;3.73;;;;;;;16.15;63.15;95142.31;5032105;28;20443;-83
2021/09/11 01:23:33;;;;;;;3.30;2.97;;;;;;;16.10;63.46;95145.44;5031697;28;20460;-83
2021/09/11 01:26:02;;;;;;;3.90;3.50;;;;;;;16.04;62.87;95138.13;5031683;28;20815;-83
2021/09/11 01:28:29;;;;;;;4.87;4.00;;;;;;;16.02;63.48;95148.03;4996927;28;20430;-83
2021/09/11 01:30:56;;;;;;;5.07;3.33;;;;;;;16.05;64.47;95146.91;5031912;28;20477;-83
2021/09/11 01:33:24;;;;;;;5.90;3.90;;;;;;;16.06;63.91;95148.56;5013131;28;20455;-83
2021/09/11 01:35:54;;;;;;;4.50;4.10;;;;;;;16.04;64.35;95150.53;5031900;28;20484;-83
2021/09/11 01:38:21;;;;;;;5.60;4.13;;;;;;;16.00;64.46;95150.03;5031559;28;20445;-83
2021/09/11 01:40:48;;;;;;;5.20;3.27;;;;;;;15.94;65.45;95148.00;5031713;28;20535;-83
2021/09/11 01:43:17;;;;;;;3.80;3.50;;;;;;;15.90;64.12;95149.31;5031331;28;20940;-83
2021/09/11 01:45:44;;;;;;;4.60;4.20;;;;;;;15.92;66.33;95144.69;5031608;28;20479;-83
2021/09/11 01:48:11;;;;;;;10.07;4.33;;;;;;;15.95;65.25;95149.66;5013037;28;20975;-83
2021/09/11 01:50:38;;;;;;;9.40;4.13;;;;;;;15.97;65.59;95147.69;5031371;28;20960;-83
2021/09/11 01:53:05;;;;;;;3.97;3.57;;;;;;;15.98;65.14;95148.53;5031837;28;20480;-83
2021/09/11 01:55:32;;;;;;;4.40;4.00;;;;;;;15.96;65.64;95148.69;5031414;28;20536;-83
2021/09/11 01:57:59;;;;;;;5.33;3.50;;;;;;;15.96;65.85;95143.38;5033410;28;20446;-84
2021/09/11 02:00:27;;;;;;;7.03;3.77;;;;;;;15.95;65.74;95146.19;5016375;28;20448;-83
2021/09/11 02:02:54;;;;;;;6.70;4.10;;;;;;;15.94;65.71;95148.00;5016477;28;20936;-83
2021/09/11 02:05:21;;;;;;;4.57;3.70;;;;;;;15.86;66.32;95145.28;5034963;28;20450;-83
2021/09/11 02:07:48;;;;;;;4.07;3.63;;;;;;;15.78;65.94;95147.88;5035167;28;20530;-83
2021/09/11 02:10:17;;;;;;;4.87;3.53;;;;;;;15.72;66.92;95143.22;5035205;28;20472;-83
2021/09/11 02:12:45;;;;;;;3.77;3.47;;;;;;;15.69;66.33;95143.53;5035275;28;20446;-83
2021/09/11 02:15:12;;;;;;;7.07;3.97;;;;;;;15.67;67.02;95140.22;5032759;28;20464;-83
2021/09/11 02:17:42;;;;;;;4.80;4.37;;;;;;;15.58;67.23;95138.44;5034941;28;20497;-83
2021/09/11 02:20:10;;;;;;;5.93;4.23;;;;;;;15.53;67.02;95132.78;5034804;28;20520;-83
2021/09/11 02:22:38;;;;;;;4.97;3.77;;;;;;;15.49;68.02;95137.56;5034576;28;20461;-83
2021/09/11 02:25:06;;;;;;;4.10;3.73;;;;;;;15.41;68.32;95141.00;5034732;28;20963;-83
2021/09/11 02:27:33;;;;;;;3.83;3.57;;;;;;;15.43;67.98;95139.03;4999476;28;20497;-83
2021/09/11 02:30:00;;;;;;;4.70;3.93;;;;;;;15.47;67.78;95124.50;5034917;28;20453;-83
2021/09/11 02:32:27;;;;;;;3.67;3.37;;;;;;;15.53;67.91;95124.88;5034416;28;20447;-83
2021/09/11 02:34:56;;;;;;;4.07;3.67;;;;;;;15.49;66.96;95132.28;5032257;28;20815;-83
2021/09/11 02:37:23;;;;;;;4.30;4.00;;;;;;;15.49;67.38;95127.81;5034597;28;20489;-83
2021/09/11 02:39:50;;;;;;;5.50;3.70;;;;;;;15.50;67.00;95139.22;5034519;28;20536;-83
2021/09/11 02:42:16;;;;;;;6.00;3.77;;;;;;;15.44;66.70;95132.75;5034104;28;21023;-83
2021/09/11 02:44:43;;;;;;;8.30;3.80;;;;;;;15.41;67.72;95130.41;5034389;28;20532;-83
2021/09/11 02:47:10;;;;;;;6.00;4.40;;;;;;;15.41;67.07;95129.56;5032038;28;20452;-83
2021/09/11 02:49:37;;;;;;;5.37;4.60;;;;;;;15.37;67.48;95131.69;5034156;28;20447;-83
2021/09/11 02:52:06;;;;;;;5.23;4.00;;;;;;;15.37;68.49;95130.88;5034348;28;20479;-83
2021/09/11 02:54:33;;;;;;;3.87;3.57;;;;;;;15.35;67.99;95135.50;5034138;28;20988;-83
2021/09/11 02:57:00;;;;;;;4.43;4.10;;;;;;;15.34;68.27;95139.13;5015670;28;20482;-83
2021/09/11 02:59:27;;;;;;;5.43;4.03;;;;;;;15.35;68.60;95138.97;5033753;28;20819;-83
2021/09/11 03:01:54;;;;;;;5.83;5.23;;;;;;;14.97;69.60;95141.91;5034204;28;20450;-83
2021/09/11 03:04:20;;;;;;;7.07;5.87;;;;;;;15.05;69.33;95137.53;5034263;28;20451;-83
2021/09/11 03:06:47;;;;;;;7.10;5.77;;;;;;;15.11;69.98;95144.88;5034059;28;20947;-83
2021/09/11 03:09:16;;;;;;;8.13;5.20;;;;;;;14.93;69.45;95151.13;5032802;28;20575;-83
2021/09/11 03:11:43;;;;;;;9.83;5.50;;;;;;;14.56;70.98;95137.03;5033713;28;20453;-83
2021/09/11 03:14:10;;;;;;;7.77;5.97;;;;;;;14.57;71.40;95145.78;5033673;28;20461;-83
2021/09/11 03:16:36;;;;;;;7.77;5.17;;;;;;;14.62;71.18;95138.25;5033850;28;20520;-83
2021/09/11 03:19:03;;;;;;;12.43;5.40;;;;;;;14.77;71.41;95152.63;5033899;28;20445;-83
2021/09/11 03:21:30;;;;;;;9.90;5.63;;;;;;;14.90;70.76;95146.13;5033706;28;20803;-83
2021/09/11 03:23:57;;;;;;;6.97;4.97;;;;;;;15.11;70.08;95149.31;5031537;28;20449;-83
2021/09/11 03:26:26;;;;;;;6.87;5.30;;;;;;;15.31;69.41;95147.31;5031276;28;20945;-83
2021/09/11 03:28:53;;;;;;;9.50;5.73;;;;;;;15.43;68.35;95154.88;5033272;28;20446;-83
2021/09/11 03:31:20;;;;;;;6.73;5.60;;;;;;;15.55;67.62;95158.09;5033526;28;20991;-85
2021/09/11 03:33:46;;;;;;;5.47;4.77;;;;;;;15.63;66.91;95155.56;5033467;28;20536;-84
2021/09/11 03:36:13;;;;;;;6.83;5.03;;;;;;;15.67;67.19;95154.28;5033182;28;20494;-83
2021/09/11 03:38:40;;;;;;;6.83;5.70;;;;;;;15.69;67.23;95151.47;5030583;28;20539;-83
2021/09/11 03:41:07;;;;;;;4.63;4.23;;;;;;;15.66;67.75;95160.56;5034963;28;20430;-83
2021/09/11 03:43:36;;;;;;;13.00;5.00;;;;;;;15.59;66.96;95161.31;5035111;28;20526;-83
2021/09/11 03:46:02;;;;;;;5.20;4.37;;;;;;;15.60;67.52;95161.16;5034448;28;20529;-83
2021/09/11 03:52:19;;;;;;;7.20;4.57;;;;;;;15.53;68.84;95162.72;5027956;28;20848;-83
2021/09/11 03:54:45;;;;;;;4.93;4.30;;;;;;;15.53;68.22;95164.53;5034279;28;20800;-83
2021/09/11 03:57:12;;;;;;;6.90;4.27;;;;;;;15.53;67.76;95160.06;5033813;28;20485;-83
2021/09/11 03:59:41;;;;;;;6.20;4.63;;;;;;;15.55;68.96;95152.81;5034129;28;20445;-83
2021/09/11 04:02:08;;;;;;;5.27;4.70;;;;;;;15.55;69.00;95149.34;5034046;28;21216;-83
2021/09/11 04:04:35;;;;;;;7.10;4.40;;;;;;;15.59;68.62;95163.94;5034111;28;20449;-84
2021/09/11 04:07:02;;;;;;;7.40;4.25;;;;;;;15.63;68.95;95149.47;5015492;28;20426;-85
2021/09/11 04:09:29;;;;;;;5.60;5.00;;;;;;;15.70;69.91;95161.06;5033826;28;20193;-84
2021/09/11 04:11:56;;;;;;;6.23;4.90;;;;;;;15.72;69.72;95157.28;5034050;28;20526;-84
2021/09/11 04:14:23;;;;;;;5.13;4.00;;;;;;;15.62;69.50;95155.72;5033988;28;20519;-84
2021/09/11 04:16:51;;;;;;;17.50;6.17;;;;;;;15.63;70.34;95160.88;5033876;28;20513;-81
2021/09/11 04:19:18;;;;;;;6.10;3.83;;;;;;;15.89;69.74;95157.38;5034349;28;20442;-83
2021/09/11 04:21:45;;;;;;;10.03;5.73;;;;;;;16.38;69.38;95158.47;5034358;28;20434;-84
2021/09/11 04:24:12;;;;;;;5.67;4.53;;;;;;;16.97;66.42;95156.72;5034351;28;20512;-82
2021/09/11 04:26:39;;;;;;;4.80;3.73;;;;;;;17.74;68.10;95152.00;5034463;28;20599;-84
2021/09/11 04:29:07;;;;;;;6.03;3.93;;;;;;;18.42;64.50;95143.53;5033854;28;20526;-83
2021/09/11 04:31:34;;;;;;;4.93;4.53;;;;;;;18.94;59.29;95159.78;4999029;28;20432;-83
2021/09/11 04:34:02;;;;;;;3.53;3.23;;;;;;;19.24;65.95;95159.94;5033592;28;20450;-83
2021/09/11 04:36:29;;;;;;;10.90;4.40;;;;;;;19.85;71.99;95166.16;5033243;28;20836;-83
2021/09/11 04:38:56;;;;;;;4.00;3.37;;;;;;;20.57;65.54;95155.78;5031518;28;20536;-83
2021/09/11 04:41:23;;;;;;;4.43;3.70;;;;;;;20.89;62.25;95167.88;5033634;28;20536;-88
2021/09/11 04:43:50;;;;;;;14.50;4.33;;;;;;;21.45;57.17;95160.94;5033227;28;20436;-83
2021/09/11 04:46:17;;;;;;;8.37;4.43;;;;;;;21.68;55.21;95158.06;5033143;28;20810;-82
2021/09/11 04:48:47;;;;;;;6.60;3.33;;;;;;;21.85;54.06;95162.13;5033173;28;20526;-83
2021/09/11 04:51:15;;;;;;;9.43;4.30;;;;;;;22.11;53.68;95166.91;5033465;28;20435;-83
2021/09/11 04:53:42;;;;;;;4.27;3.87;;;;;;;22.44;50.18;95169.78;5033433;28;20481;-81
2021/09/11 04:56:09;;;;;;;8.70;3.80;;;;;;;22.58;47.81;95165.38;5033050;28;20994;-81
2021/09/11 04:58:36;;;;;;;7.37;3.40;;;;;;;22.51;44.45;95165.31;5032937;28;20580;-80
2021/09/11 05:01:03;;;;;;;4.40;4.00;;;;;;;22.30;46.53;95159.22;5033007;28;20533;-80
2021/09/11 05:03:30;;;;;;;4.47;3.87;;;;;;;22.24;47.94;95156.28;5015757;28;20441;-80
2021/09/11 05:05:57;;;;;;;4.17;3.50;;;;;;;22.32;47.73;95157.19;5033184;28;20445;-81
2021/09/11 05:08:25;;;;;;;5.07;3.50;;;;;;;22.47;47.33;95164.06;5034138;28;20445;-80
2021/09/11 05:10:52;;;;;;;4.03;3.70;;;;;;;22.67;46.42;95158.81;5032902;28;20906;-80
2021/09/11 05:13:19;;;;;;;4.47;4.07;;;;;;;22.82;45.17;95159.53;5032916;28;20456;-80
2021/09/11 05:15:46;;;;;;;6.77;3.90;;;;;;;22.99;44.84;95164.56;5032843;28;20536;-81
2021/09/11 05:18:13;;;;;;;3.90;3.50;;;;;;;23.09;44.05;95162.31;5033269;28;20493;-80
2021/09/11 05:20:40;;;;;;;4.20;3.77;;;;;;;23.20;43.93;95145.69;5032365;28;20795;-80
2021/09/11 05:23:07;;;;;;;5.07;3.67;;;;;;;23.33;43.96;95161.78;5032077;28;20500;-80
2021/09/11 05:25:35;;;;;;;4.20;3.90;;;;;;;23.43;43.47;95154.22;5013433;28;20486;-81
2021/09/11 05:28:02;;;;;;;7.03;5.20;;;;;;;23.59;44.52;95160.22;5031926;28;20448;-81
2021/09/11 05:30:29;;;;;;;8.80;6.40;;;;;;;23.75;44.22;95157.16;5013535;28;20452;-82
2021/09/11 05:32:56;;;;;;;12.40;6.20;;;;;;;23.67;42.81;95160.03;5033829;28;20538;-81
2021/09/11 05:35:23;;;;;;;10.00;6.20;;;;;;;22.80;43.21;95153.53;5035767;28;20840;-82
2021/09/11 05:37:50;;;;;;;5.73;5.23;;;;;;;22.70;44.79;95153.06;5035486;28;20485;-80
2021/09/11 05:40:17;;;;;;;9.90;5.90;;;;;;;22.71;46.18;95159.25;5036034;28;20540;-82
2021/09/11 05:42:45;;;;;;;9.27;4.90;;;;;;;22.97;45.66;95164.75;5017172;28;20452;-81
2021/09/11 05:45:12;;;;;;;8.53;6.03;;;;;;;23.22;45.09;95157.03;5035703;28;20449;-81
2021/09/11 05:47:39;;;;;;;7.47;5.47;;;;;;;23.40;43.46;95159.13;5017164;28;20528;-81
2021/09/11 05:50:07;;;;;;;5.00;4.50;;;;;;;23.62;43.32;95159.81;5035528;28;20447;-81
2021/09/11 05:52:34;;;;;;;8.50;5.30;;;;;;;23.46;43.05;95153.78;5035609;28;20462;-80
2021/09/11 05:55:01;;;;;;;7.33;4.90;;;;;;;23.00;44.05;95153.66;5035486;28;20531;-81
2021/09/11 05:57:28;;;;;;;7.90;5.97;;;;;;;22.96;44.80;95146.22;5035666;28;20576;-81
2021/09/11 05:59:57;;;;;;;5.50;5.00;;;;;;;23.03;44.63;95152.41;5035561;28;21031;-81
2021/09/11 06:02:24;;;;;;;8.90;5.70;;;;;;;23.03;44.58;95157.78;5035344;28;20464;-81
2021/09/11 06:04:51;;;;;;;17.17;5.40;;;;;;;23.06;44.03;95146.66;5035704;28;20449;-81
2021/09/11 06:07:18;;;;;;;7.30;5.67;;;;;;;22.93;44.60;95135.91;5035183;28;20936;-81
2021/09/11 06:09:45;;;;;;;10.33;5.63;;;;;;;23.03;45.43;95152.41;5035450;28;20453;-81
2021/09/11 06:12:12;;;;;;;8.80;5.63;;;;;;;23.36;43.60;95153.34;5035011;28;20497;-81
2021/09/11 06:14:40;;;;;;;10.47;6.57;;;;;;;23.35;43.37;95151.69;5016552;28;20439;-81
2021/09/11 06:17:11;;;;;;;14.23;5.97;;;;;;;23.24;44.59;95157.66;5035141;28;20493;-81
2021/09/11 06:19:38;;;;;;;10.67;5.90;;;;;;;23.52;44.95;95167.41;5034857;28;20446;-81
2021/09/11 06:22:08;;;;;;;6.20;5.17;;;;;;;23.75;44.00;95162.53;5035297;28;20560;-81
2021/09/11 06:24:34;;;;;;;7.93;5.60;;;;;;;23.82;43.94;95158.00;5035545;28;20451;-81
2021/09/11 06:27:01;;;;;;;7.37;5.13;;;;;;;23.43;44.23;95156.06;5032716;28;20456;-81
2021/09/11 06:29:28;;;;;;;5.07;4.67;;;;;;;23.31;44.47;95154.97;5034571;28;20528;-81
2021/09/11 06:31:55;;;;;;;9.33;5.23;;;;;;;23.35;45.22;95156.22;5034797;28;20531;-81
2021/09/11 06:34:24;;;;;;;17.13;5.67;;;;;;;23.36;44.55;95148.00;5034721;28;20979;-81
2021/09/11 06:36:51;;;;;;;11.33;5.10;;;;;;;23.38;44.62;95147.78;5034471;28;20450;-81
2021/09/11 06:39:18;;;;;;;12.33;7.00;;;;;;;23.71;43.81;95151.41;5034425;28;20813;-81
2021/09/11 06:41:45;;;;;;;8.43;4.50;;;;;;;24.02;42.88;95150.78;5034717;28;20818;-81
2021/09/11 06:44:12;;;;;;;5.03;4.50;;;;;;;24.36;40.51;95151.63;5034557;28;20947;-81
2021/09/11 06:46:39;;;;;;;12.13;6.20;;;;;;;24.70;40.94;95145.97;5034371;28;20444;-81
2021/09/11 06:49:06;;;;;;;10.83;4.47;;;;;;;25.09;38.79;95149.56;5034593;28;20531;-81
2021/09/11 06:51:34;;;;;;;7.50;4.40;;;;;;;25.37;38.99;95146.53;5034523;28;20459;-81
2021/09/11 06:54:01;;;;;;;9.13;6.17;;;;;;;25.49;38.03;95146.69;5034250;28;20481;-81
2021/09/11 06:56:28;;;;;;;11.53;4.00;;;;;;;25.57;39.13;95146.41;5032289;28;20453;-81
2021/09/11 06:58:55;;;;;;;8.53;3.70;;;;;;;25.49;37.31;95144.81;5015561;28;20819;-81
2021/09/11 07:01:23;;;;;;;8.03;4.20;;;;;;;24.70;37.50;95145.97;5034190;28;20468;-81
2021/09/11 07:03:50;;;;;;;9.43;3.70;;;;;;;24.79;37.76;95137.66;5034501;28;20453;-81
2021/09/11 07:06:17;;;;;;;4.30;3.90;;;;;;;24.85;39.86;95142.19;5034048;28;20843;-81
2021/09/11 07:08:46;;;;;;;14.53;4.43;;;;;;;24.79;38.90;95143.84;5034184;28;20450;-81
2021/09/11 07:11:14;;;;;;;4.70;4.20;;;;;;;24.88;39.50;95136.41;5015515;28;20452;-81
2021/09/11 07:13:42;;;;;;;4.93;3.90;;;;;;;25.16;39.19;95136.94;5033996;28;20901;-81
2021/09/11 07:16:09;;;;;;;5.20;4.60;;;;;;;25.44;38.75;95135.72;5034142;28;20536;-81
2021/09/11 07:18:36;;;;;;;6.60;5.73;;;;;;;25.56;38.52;95134.03;5033829;28;20573;-81
2021/09/11 07:21:03;;;;;;;7.40;4.37;;;;;;;25.51;38.45;95131.16;5015318;28;20447;-81
2021/09/11 07:23:31;;;;;;;5.33;4.70;;;;;;;25.14;39.41;95130.94;5033932;28;20500;-81
2021/09/11 07:25:59;;;;;;;7.37;4.37;;;;;;;25.25;39.29;95132.97;5033835;28;20685;-81
2021/09/11 07:28:26;;;;;;;4.90;4.40;;;;;;;25.22;37.64;95133.41;5034093;28;20937;-81
2021/09/11 07:30:53;;;;;;;7.20;4.90;;;;;;;25.16;37.82;95120.84;5033738;28;20452;-81
2021/09/11 07:33:20;;;;;;;5.70;4.53;;;;;;;25.12;38.32;95124.13;5015282;28;20448;-81
2021/09/11 07:35:47;;;;;;;11.43;4.40;;;;;;;25.15;39.30;95124.53;5033714;28;20446;-81
2021/09/11 07:38:15;;;;;;;6.60;4.70;;;;;;;25.29;38.99;95122.59;5033552;28;20490;-81
2021/09/11 07:40:42;;;;;;;4.63;4.23;;;;;;;25.30;38.99;95119.72;5033682;28;20942;-81
2021/09/11 07:43:11;;;;;;;4.77;3.80;;;;;;;25.31;38.25;95115.97;5033233;28;20958;-81
2021/09/11 07:45:38;;;;;;;4.63;4.23;;;;;;;25.28;40.00;95119.09;5031370;28;20442;-81
2021/09/11 07:48:06;;;;;;;5.00;4.60;;;;;;;25.24;38.44;95115.19;5033292;28;20453;-81
2021/09/11 07:50:35;;;;;;;4.87;4.40;;;;;;;25.46;38.69;95115.69;5033108;28;20462;-81
2021/09/11 07:53:02;;;;;;;5.13;4.20;;;;;;;25.62;38.75;95117.03;5033277;28;20481;-81
2021/09/11 07:55:29;;;;;;;12.77;5.80;;;;;;;25.80;38.71;95109.06;5032640;28;20534;-81
2021/09/11 07:57:56;;;;;;;8.80;4.43;;;;;;;25.93;38.18;95108.94;5033164;28;20493;-81
2021/09/11 08:00:25;;;;;;;7.10;3.80;;;;;;;26.00;37.60;95113.44;5033203;28;20439;-81
2021/09/11 08:02:52;;;;;;;7.03;4.70;;;;;;;25.84;37.58;95110.28;5033332;28;20541;-81
2021/09/11 08:05:18;;;;;;;6.33;4.10;;;;;;;25.82;38.08;95111.53;5035620;28;20628;-81
2021/09/11 08:07:45;;;;;;;4.23;3.83;;;;;;;25.63;37.56;95107.91;5032794;28;20442;-81
2021/09/11 08:10:13;;;;;;;5.47;4.20;;;;;;;25.44;37.86;95106.19;5030954;28;20451;-81
2021/09/11 08:12:40;;;;;;;4.10;3.77;;;;;;;25.17;37.69;95098.31;5033208;28;20449;-81
2021/09/11 08:15:08;;;;;;;5.80;3.87;;;;;;;25.43;38.66;95096.47;5032932;28;20521;-81
2021/09/11 08:17:37;;;;;;;5.23;4.20;;;;;;;25.62;38.24;95107.09;5030492;28;20468;-81
2021/09/11 08:20:05;;;;;;;5.67;3.90;;;;;;;25.83;37.56;95092.50;5032597;28;20446;-81
2021/09/11 08:22:32;;;;;;;4.00;3.70;;;;;;;26.08;38.13;95088.97;5032421;28;20457;-81
2021/09/11 08:24:59;;;;;;;9.07;3.63;;;;;;;26.02;35.40;95089.84;5032869;28;20447;-81
2021/09/11 08:27:26;;;;;;;4.40;3.53;;;;;;;25.99;35.54;95080.34;5032724;28;20449;-81
2021/09/11 08:29:53;;;;;;;4.63;3.70;;;;;;;25.87;34.84;95077.56;5033006;28;20453;-81
2021/09/11 08:32:20;;;;;;;3.03;2.80;;;;;;;25.49;35.95;95076.81;5032516;28;20453;-81
2021/09/11 08:34:50;;;;;;;5.03;3.63;;;;;;;25.56;35.98;95085.66;5032660;28;20461;-81
2021/09/11 08:37:17;;;;;;;4.17;3.60;;;;;;;25.71;36.14;95080.78;5032461;28;20556;-81
2021/09/11 08:39:44;;;;;;;2.80;2.60;;;;;;;25.71;34.80;95083.47;5030462;28;20494;-81
2021/09/11 08:42:11;;;;;;;8.10;3.43;;;;;;;25.62;34.31;95074.00;5032844;28;20529;-81
2021/09/11 08:44:38;;;;;;;3.80;3.00;;;;;;;25.85;36.36;95074.28;5032277;28;20449;-81
2021/09/11 08:47:07;;;;;;;4.60;3.30;;;;;;;25.99;35.06;95068.78;5032558;28;20442;-81
2021/09/11 08:49:34;;;;;;;4.07;3.47;;;;;;;25.98;33.55;95062.56;5013813;28;20441;-81
2021/09/11 08:52:07;;;;;;;3.07;2.83;;;;;;;26.17;34.09;95063.44;5032444;28;20865;-81
2021/09/11 08:54:34;;;;;;;5.87;3.50;;;;;;;26.23;33.87;95073.28;5032099;28;20915;-81
2021/09/11 08:57:20;;;;;;;3.80;3.17;;;;;;;26.18;33.31;95065.06;5032456;28;20451;-81
2021/09/11 08:59:47;;;;;;;3.97;3.60;;;;;;;26.28;34.34;95067.25;5032396;28;20492;-81
2021/09/11 09:02:14;;;;;;;3.83;3.10;;;;;;;26.24;33.43;95066.88;5032205;28;20497;-81
2021/09/11 09:04:47;;;;;;;5.10;2.73;;;;;;;26.03;32.21;95061.94;5032238;28;20521;-81
2021/09/11 09:07:29;;;;;;;4.77;3.20;;;;;;;26.18;33.14;95060.50;5032848;28;20439;-81
2021/09/11 09:09:58;;;;;;;6.27;3.67;;;;;;;26.16;32.50;95051.84;5034286;28;20449;-81
2021/09/11 09:12:25;;;;;;;7.00;3.50;;;;;;;25.98;31.58;95051.00;5034236;28;20849;-81
2021/09/11 09:15:00;;;;;;;6.67;3.47;;;;;;;25.80;30.64;95052.59;5017571;28;20450;-81
2021/09/11 09:17:45;;;;;;;3.20;2.90;;;;;;;25.85;31.50;95050.06;5036282;28;20504;-81
2021/09/11 09:20:18;;;;;;;5.07;2.90;;;;;;;25.77;33.28;95044.16;5036080;28;20511;-81
2021/09/11 09:22:49;;;;;;;3.63;3.33;;;;;;;25.40;33.48;95051.22;5036144;28;20555;-81
2021/09/11 09:25:28;;;;;;;3.60;3.30;;;;;;;25.60;35.52;95046.53;5035985;28;20565;-81
2021/09/11 09:27:58;;;;;;;6.60;4.30;;;;;;;25.74;34.01;95045.44;5035928;28;20442;-81
2021/09/11 09:30:36;;;;;;;17.43;4.17;;;;;;;25.85;36.57;95042.00;5035889;28;21013;-81
2021/09/11 09:33:04;;;;;;;4.40;3.20;;;;;;;25.95;33.13;95044.19;5033639;28;20453;-81
2021/09/11 09:35:31;;;;;;;6.53;3.77;;;;;;;25.83;33.48;95036.03;5035727;28;20525;-81
2021/09/11 09:38:01;;;;;;;4.33;3.77;;;;;;;26.01;33.36;95029.84;5035537;28;20437;-81
2021/09/11 09:40:40;;;;;;;4.10;3.73;;;;;;;26.07;32.82;95022.78;5036001;28;20474;-81
2021/09/11 09:43:09;;;;;;;5.30;3.30;;;;;;;26.10;32.74;95017.78;5035443;28;20521;-81
2021/09/11 09:45:36;;;;;;;14.83;4.10;;;;;;;25.89;31.74;95016.31;5035624;28;20446;-81
2021/09/11 09:48:09;;;;;;;12.47;4.70;;;;;;;25.77;32.48;95023.47;5035826;28;20466;-81
2021/09/11 09:50:38;;;;;;;8.80;5.20;;;;;;;25.80;30.81;95012.28;5035637;28;20509;-81
2021/09/11 09:53:07;;;;;;;14.33;4.23;;;;;;;25.93;31.99;95009.44;5035151;28;20481;-81
2021/09/11 09:55:39;;;;;;;4.80;3.83;;;;;;;25.89;31.35;95010.94;5034106;28;20456;-81
2021/09/11 09:58:06;;;;;;;8.70;3.87;;;;;;;25.90;30.58;95020.66;5032000;28;20961;-81
2021/09/11 10:00:33;;;;;;;10.03;3.90;;;;;;;25.74;30.67;95010.47;5034073;28;20489;-81
2021/09/11 10:03:00;;;;;;;3.40;3.10;;;;;;;25.86;30.36;95008.69;5034189;28;20822;-81
2021/09/11 10:05:30;;;;;;;6.63;3.37;;;;;;;25.94;29.46;95004.91;5034033;28;21017;-81
2021/09/11 10:08:06;;;;;;;4.70;2.93;;;;;;;26.04;27.65;95007.09;5034200;28;20528;-81
2021/09/11 10:10:37;;;;;;;3.43;3.10;;;;;;;26.17;31.46;95007.75;5034113;28;20454;-82
2021/09/11 10:13:12;;;;;;;3.97;3.37;;;;;;;26.36;27.83;95005.13;5034129;28;20529;-81
2021/09/11 10:15:54;;;;;;;4.80;3.60;;;;;;;26.40;28.37;95001.75;5033755;28;20533;-81
2021/09/11 10:18:41;;;;;;;5.43;3.87;;;;;;;26.29;29.16;94993.56;5033517;28;20504;-81
2021/09/11 10:21:28;;;;;;;13.03;3.73;;;;;;;26.27;29.98;94998.34;5033830;28;20447;-81
2021/09/11 10:24:30;;;;;;;9.37;4.47;;;;;;;26.13;27.81;94994.97;5032100;28;20529;-81
2021/09/11 10:27:02;;;;;;;4.53;3.13;;;;;;;25.88;28.09;94995.03;5033808;28;20474;-81
2021/09/11 10:29:46;;;;;;;4.30;3.27;;;;;;;25.70;29.11;94998.50;5033934;28;20450;-81
2021/09/11 10:32:25;;;;;;;3.43;3.00;;;;;;;25.64;28.92;94985.91;5033532;28;20446;-81
2021/09/11 10:34:55;;;;;;;3.47;3.20;;;;;;;25.63;32.01;94990.47;5033549;28;20450;-81
2021/09/11 10:37:37;;;;;;;4.20;3.77;;;;;;;25.69;29.71;94994.16;5033717;28;20447;-81
2021/09/11 10:40:32;;;;;;;10.40;4.03;;;;;;;25.72;30.35;94992.91;5033404;28;20490;-81
2021/09/11 10:43:31;;;;;;;5.53;3.50;;;;;;;25.74;29.20;94988.97;4991966;28;20455;-81
2021/09/11 10:46:02;;;;;;;11.30;4.23;;;;;;;25.64;30.01;94985.91;4960813;28;20511;-81
2021/09/11 10:48:49;;;;;;;4.97;4.40;;;;;;;25.71;29.14;94978.63;4991943;28;20476;-81
2021/09/11 10:51:36;;;;;;;10.10;4.07;;;;;;;25.63;30.78;94974.34;4992147;28;20455;-81
2021/09/11 10:54:31;;;;;;;4.63;4.20;;;;;;;25.58;30.86;94976.06;4948833;28;1257350;-81
2021/09/11 10:57:14;;;;;;;4.83;4.30;;;;;;;25.48;30.73;94962.31;4956896;28;20500;-81
2021/09/11 10:59:45;;;;;;;5.40;4.30;;;;;;;25.50;31.63;94958.34;4973382;28;20477;-81
2021/09/11 11:02:36;;;;;;;10.60;4.40;;;;;;;25.38;29.70;94960.09;4973364;28;20468;-81
2021/09/11 11:05:08;;;;;;;4.30;3.90;;;;;;;25.42;29.88;94955.09;4973053;28;20444;-81
2021/09/11 11:07:41;;;;;;;6.90;4.00;;;;;;;25.49;29.37;94953.19;4973047;28;20449;-81
2021/09/11 11:10:11;;;;;;;6.87;4.57;;;;;;;25.53;30.41;94957.09;4972948;28;20893;-81
2021/09/11 11:12:40;;;;;;;7.70;4.30;;;;;;;25.62;30.71;94943.13;4972889;28;20481;-81
2021/09/11 11:15:11;;;;;;;7.80;4.50;;;;;;;25.46;31.14;94932.97;4983024;28;20538;-81
2021/09/11 11:17:42;;;;;;;8.83;4.23;;;;;;;25.37;29.96;94936.13;4992139;28;20555;-81
2021/09/11 11:20:10;;;;;;;5.70;4.00;;;;;;;25.11;30.95;94932.63;5030793;28;20496;-81
2021/09/11 11:22:39;;;;;;;8.30;4.00;;;;;;;25.29;30.26;94935.38;4998863;28;20529;-81
2021/09/11 11:25:09;;;;;;;4.77;4.27;;;;;;;25.30;30.15;94928.97;5034125;28;20570;-81
2021/09/11 11:27:36;;;;;;;4.40;3.93;;;;;;;25.44;30.23;94916.22;5031764;28;20473;-81
2021/09/11 11:30:06;;;;;;;9.43;4.27;;;;;;;25.33;29.38;94923.16;5032896;28;20526;-81
2021/09/11 11:32:36;;;;;;;8.57;4.13;;;;;;;25.28;28.88;94914.94;5033491;28;20446;-81
2021/09/11 11:35:05;;;;;;;13.40;3.73;;;;;;;25.45;30.12;94912.53;5033655;28;20446;-81
2021/09/11 11:37:33;;;;;;;5.40;4.30;;;;;;;25.50;29.51;94907.31;5033723;28;20481;-81
2021/09/11 11:40:04;;;;;;;5.47;3.37;;;;;;;25.49;26.18;94908.34;5033283;28;20529;-81
2021/09/11 11:42:33;;;;;;;3.63;2.60;;;;;;;25.39;25.61;94907.19;5033311;28;20542;-81